sensor_id;sensor_type;location;lat;lon;timestamp;P1;P2;P0
72031;PMS5003;49185;42.320;23.198;2023-01-19T00:02:18;17.00;14.67;3.67
72031;PMS5003;49185;42.320;23.198;2023-01-19T00:04:44;11.00;9.00;1.00
72031;PMS5003;49185;42.320;23.198;2023-01-19T00:07:09;2.00;2.00;0.00
72031;PMS5003;49185;42.320;23.198;2023-01-19T00:09:35;10.00;10.00;1.00
72031;PMS5003;49185;42.320;23.198;2023-01-19T00:12:00;5.67;5.33;0.00
72031;PMS5003;49185;42.320;23.198;2023-01-19T00:14:25;11.33;8.33;2.00
72031;PMS5003;49185;42.320;23.198;2023-01-19T00:16:51;7.00;6.00;0.00
72031;PMS5003;49185;42.320;23.198;2023-01-19T00:19:16;3.67;2.67;0.00
72031;PMS5003;49185;42.320;23.198;2023-01-19T00:21:42;8.67;5.67;0.00
72031;PMS5003;49185;42.320;23.198;2023-01-19T00:24:09;11.00;9.00;1.00
72031;PMS5003;49185;42.320;23.198;2023-01-19T00:26:34;4.25;3.25;0.00
72031;PMS5003;49185;42.320;23.198;2023-01-19T00:29:00;2.00;1.00;0.00
72031;PMS5003;49185;42.320;23.198;2023-01-19T00:31:25;7.67;4.67;0.00
72031;PMS5003;49185;42.320;23.198;2023-01-19T00:33:50;3.33;2.00;0.00
72031;PMS5003;49185;42.320;23.198;2023-01-19T00:36:16;2.33;2.33;0.00
72031;PMS5003;49185;42.320;23.198;2023-01-19T00:38:41;5.00;5.00;0.00
72031;PMS5003;49185;42.320;23.198;2023-01-19T00:41:07;1.00;1.00;0.00
72031;PMS5003;49185;42.320;23.198;2023-01-19T00:43:32;4.00;3.00;0.00
72031;PMS5003;49185;42.320;23.198;2023-01-19T00:45:57;3.33;2.67;0.00
72031;PMS5003;49185;42.320;23.198;2023-01-19T00:48:23;4.00;3.00;0.00
72031;PMS5003;49185;42.320;23.198;2023-01-19T00:50:48;3.00;1.00;0.00
72031;PMS5003;49185;42.320;23.198;2023-01-19T00:53:14;2.50;2.25;0.50
72031;PMS5003;49185;42.320;23.198;2023-01-19T00:55:40;5.33;2.33;0.00
72031;PMS5003;49185;42.320;23.198;2023-01-19T00:58:06;5.67;5.33;0.00
72031;PMS5003;49185;42.320;23.198;2023-01-19T01:00:31;5.75;4.75;0.00
72031;PMS5003;49185;42.320;23.198;2023-01-19T01:02:57;3.00;2.00;0.00
72031;PMS5003;49185;42.320;23.198;2023-01-19T01:05:22;3.00;1.00;0.00
72031;PMS5003;49185;42.320;23.198;2023-01-19T01:07:48;3.00;2.00;0.00
72031;PMS5003;49185;42.320;23.198;2023-01-19T01:12:40;7.00;6.25;0.00
72031;PMS5003;49185;42.320;23.198;2023-01-19T01:15:06;3.00;0.00;0.00
72031;PMS5003;49185;42.320;23.198;2023-01-19T01:17:33;3.00;0.00;0.00
72031;PMS5003;49185;42.320;23.198;2023-01-19T01:19:58;4.00;2.00;0.00
72031;PMS5003;49185;42.320;23.198;2023-01-19T01:22:24;3.33;2.33;0.00
72031;PMS5003;49185;42.320;23.198;2023-01-19T01:24:49;2.67;1.67;0.00
72031;PMS5003;49185;42.320;23.198;2023-01-19T01:27:15;1.00;0.00;0.00
72031;PMS5003;49185;42.320;23.198;2023-01-19T01:29:41;2.50;1.75;0.00
72031;PMS5003;49185;42.320;23.198;2023-01-19T01:32:07;1.00;0.00;0.00
72031;PMS5003;49185;42.320;23.198;2023-01-19T01:34:32;1.00;1.00;0.00
72031;PMS5003;49185;42.320;23.198;2023-01-19T01:36:58;2.33;2.33;0.00
72031;PMS5003;49185;42.320;23.198;2023-01-19T01:39:23;1.00;1.00;0.00
72031;PMS5003;49185;42.320;23.198;2023-01-19T01:41:49;3.00;2.33;0.00
72031;PMS5003;49185;42.320;23.198;2023-01-19T01:47:10;1.25;0.00;0.00
72031;PMS5003;49185;42.320;23.198;2023-01-19T01:49:36;0.00;0.00;0.00
72031;PMS5003;49185;42.320;23.198;2023-01-19T01:52:01;4.33;3.33;0.00
72031;PMS5003;49185;42.320;23.198;2023-01-19T01:54:28;2.00;0.00;0.00
72031;PMS5003;49185;42.320;23.198;2023-01-19T01:56:57;4.00;2.00;0.00
72031;PMS5003;49185;42.320;23.198;2023-01-19T01:59:29;3.00;1.00;0.00
72031;PMS5003;49185;42.320;23.198;2023-01-19T02:02:02;0.00;0.00;0.00
72031;PMS5003;49185;42.320;23.198;2023-01-19T02:04:30;1.50;0.25;0.00
72031;PMS5003;49185;42.320;23.198;2023-01-19T02:06:56;0.00;0.00;0.00
72031;PMS5003;49185;42.320;23.198;2023-01-19T02:09:21;0.67;0.00;0.00
72031;PMS5003;49185;42.320;23.198;2023-01-19T02:11:49;0.50;0.00;0.00
72031;PMS5003;49185;42.320;23.198;2023-01-19T02:14:14;3.00;2.00;0.00
72031;PMS5003;49185;42.320;23.198;2023-01-19T02:16:40;1.00;1.00;0.00
72031;PMS5003;49185;42.320;23.198;2023-01-19T02:19:06;1.00;0.00;0.00
72031;PMS5003;49185;42.320;23.198;2023-01-19T02:21:46;0.50;0.00;0.00
72031;PMS5003;49185;42.320;23.198;2023-01-19T02:24:15;0.00;0.00;0.00
72031;PMS5003;49185;42.320;23.198;2023-01-19T02:26:41;0.00;0.00;0.00
72031;PMS5003;49185;42.320;23.198;2023-01-19T02:29:19;0.50;0.00;0.00
72031;PMS5003;49185;42.320;23.198;2023-01-19T02:31:47;0.00;0.00;0.00
72031;PMS5003;49185;42.320;23.198;2023-01-19T02:34:16;0.00;0.00;0.00
72031;PMS5003;49185;42.320;23.198;2023-01-19T02:39:26;0.00;0.00;0.00
72031;PMS5003;49185;42.320;23.198;2023-01-19T02:42:08;0.00;0.00;0.00
72031;PMS5003;49185;42.320;23.198;2023-01-19T02:44:38;0.00;0.00;0.00
72031;PMS5003;49185;42.320;23.198;2023-01-19T02:47:07;0.00;0.00;0.00
72031;PMS5003;49185;42.320;23.198;2023-01-19T02:49:33;2.00;0.75;0.00
72031;PMS5003;49185;42.320;23.198;2023-01-19T02:51:58;0.00;0.00;0.00
72031;PMS5003;49185;42.320;23.198;2023-01-19T02:57:02;0.33;0.00;0.00
72031;PMS5003;49185;42.320;23.198;2023-01-19T03:02:13;1.00;0.00;0.00
72031;PMS5003;49185;42.320;23.198;2023-01-19T03:15:27;0.25;0.25;0.00
72031;PMS5003;49185;42.320;23.198;2023-01-19T03:18:00;0.00;0.00;0.00
72031;PMS5003;49185;42.320;23.198;2023-01-19T03:20:30;0.00;0.00;0.00
72031;PMS5003;49185;42.320;23.198;2023-01-19T03:23:00;1.00;0.00;0.00
72031;PMS5003;49185;42.320;23.198;2023-01-19T03:25:30;0.00;0.00;0.00
72031;PMS5003;49185;42.320;23.198;2023-01-19T03:28:01;0.00;0.00;0.00
72031;PMS5003;49185;42.320;23.198;2023-01-19T03:30:29;1.00;1.00;0.00
72031;PMS5003;49185;42.320;23.198;2023-01-19T03:33:01;0.50;0.00;0.00
72031;PMS5003;49185;42.320;23.198;2023-01-19T03:35:32;1.25;0.00;0.00
72031;PMS5003;49185;42.320;23.198;2023-01-19T03:38:04;0.00;0.00;0.00
72031;PMS5003;49185;42.320;23.198;2023-01-19T03:40:36;0.00;0.00;0.00
72031;PMS5003;49185;42.320;23.198;2023-01-19T03:43:02;2.50;1.50;0.00
72031;PMS5003;49185;42.320;23.198;2023-01-19T03:45:29;1.00;0.00;0.00
72031;PMS5003;49185;42.320;23.198;2023-01-19T03:47:57;0.25;0.00;0.00
72031;PMS5003;49185;42.320;23.198;2023-01-19T03:50:24;1.75;0.00;0.00
72031;PMS5003;49185;42.320;23.198;2023-01-19T03:53:09;2.25;0.25;0.00
72031;PMS5003;49185;42.320;23.198;2023-01-19T03:55:37;1.00;0.00;0.00
72031;PMS5003;49185;42.320;23.198;2023-01-19T03:58:05;0.00;0.00;0.00
72031;PMS5003;49185;42.320;23.198;2023-01-19T04:00:31;1.00;0.00;0.00
72031;PMS5003;49185;42.320;23.198;2023-01-19T04:02:57;1.00;0.00;0.00
72031;PMS5003;49185;42.320;23.198;2023-01-19T04:05:23;0.00;0.00;0.00
72031;PMS5003;49185;42.320;23.198;2023-01-19T04:25:43;1.00;0.00;0.00
72031;PMS5003;49185;42.320;23.198;2023-01-19T04:28:29;0.00;0.00;0.00
72031;PMS5003;49185;42.320;23.198;2023-01-19T04:31:15;1.50;0.50;0.00
72031;PMS5003;49185;42.320;23.198;2023-01-19T04:34:01;1.50;1.50;0.00
72031;PMS5003;49185;42.320;23.198;2023-01-19T04:36:48;0.00;0.00;0.00
72031;PMS5003;49185;42.320;23.198;2023-01-19T04:39:33;1.50;0.00;0.00
72031;PMS5003;49185;42.320;23.198;2023-01-19T04:42:19;0.75;0.00;0.00
72031;PMS5003;49185;42.320;23.198;2023-01-19T04:45:05;0.25;0.00;0.00
72031;PMS5003;49185;42.320;23.198;2023-01-19T04:47:51;0.00;0.00;0.00
72031;PMS5003;49185;42.320;23.198;2023-01-19T04:50:37;0.00;0.00;0.00
72031;PMS5003;49185;42.320;23.198;2023-01-19T04:53:23;2.50;1.75;0.00
72031;PMS5003;49185;42.320;23.198;2023-01-19T04:56:08;1.00;1.00;0.00
72031;PMS5003;49185;42.320;23.198;2023-01-19T04:58:54;2.75;0.75;0.00
72031;PMS5003;49185;42.320;23.198;2023-01-19T05:01:40;2.00;1.75;0.00
72031;PMS5003;49185;42.320;23.198;2023-01-19T05:04:26;0.00;0.00;0.00
72031;PMS5003;49185;42.320;23.198;2023-01-19T05:07:11;2.50;1.50;0.00
72031;PMS5003;49185;42.320;23.198;2023-01-19T05:09:57;1.25;0.00;0.00
72031;PMS5003;49185;42.320;23.198;2023-01-19T05:12:31;4.75;2.50;0.00
72031;PMS5003;49185;42.320;23.198;2023-01-19T05:14:57;1.50;1.00;0.00
72031;PMS5003;49185;42.320;23.198;2023-01-19T05:17:23;1.00;0.00;0.00
72031;PMS5003;49185;42.320;23.198;2023-01-19T05:19:48;2.67;2.00;0.00
72031;PMS5003;49185;42.320;23.198;2023-01-19T05:22:14;0.00;0.00;0.00
72031;PMS5003;49185;42.320;23.198;2023-01-19T05:24:40;1.00;1.00;0.00
72031;PMS5003;49185;42.320;23.198;2023-01-19T05:27:05;0.00;0.00;0.00
72031;PMS5003;49185;42.320;23.198;2023-01-19T05:29:31;3.67;2.00;0.00
72031;PMS5003;49185;42.320;23.198;2023-01-19T05:31:56;3.67;0.00;0.00
72031;PMS5003;49185;42.320;23.198;2023-01-19T05:34:22;5.00;0.00;0.00
72031;PMS5003;49185;42.320;23.198;2023-01-19T05:36:47;2.00;0.00;0.00
72031;PMS5003;49185;42.320;23.198;2023-01-19T05:39:13;2.67;1.00;0.00
72031;PMS5003;49185;42.320;23.198;2023-01-19T05:41:38;4.00;3.00;0.00
72031;PMS5003;49185;42.320;23.198;2023-01-19T05:44:04;3.00;2.00;0.00
72031;PMS5003;49185;42.320;23.198;2023-01-19T05:46:29;4.00;2.00;0.00
72031;PMS5003;49185;42.320;23.198;2023-01-19T05:48:55;3.75;1.00;0.00
72031;PMS5003;49185;42.320;23.198;2023-01-19T05:51:20;3.33;1.00;0.00
72031;PMS5003;49185;42.320;23.198;2023-01-19T05:53:46;3.33;1.33;0.00
72031;PMS5003;49185;42.320;23.198;2023-01-19T05:56:11;0.00;0.00;0.00
72031;PMS5003;49185;42.320;23.198;2023-01-19T05:58:37;2.00;1.33;0.00
72031;PMS5003;49185;42.320;23.198;2023-01-19T06:01:03;2.00;0.00;0.00
72031;PMS5003;49185;42.320;23.198;2023-01-19T06:03:30;3.00;0.25;0.00
72031;PMS5003;49185;42.320;23.198;2023-01-19T06:05:57;2.00;2.00;0.00
72031;PMS5003;49185;42.320;23.198;2023-01-19T06:08:23;1.00;1.00;0.00
72031;PMS5003;49185;42.320;23.198;2023-01-19T06:10:48;3.00;2.00;0.00
72031;PMS5003;49185;42.320;23.198;2023-01-19T06:13:14;9.67;7.00;0.00
72031;PMS5003;49185;42.320;23.198;2023-01-19T06:15:39;6.33;3.33;0.00
72031;PMS5003;49185;42.320;23.198;2023-01-19T06:18:05;4.00;3.00;0.00
72031;PMS5003;49185;42.320;23.198;2023-01-19T06:20:30;9.00;7.00;1.33
72031;PMS5003;49185;42.320;23.198;2023-01-19T06:22:56;34.00;28.67;12.67
72031;PMS5003;49185;42.320;23.198;2023-01-19T06:25:22;24.50;21.50;6.25
72031;PMS5003;49185;42.320;23.198;2023-01-19T06:27:47;21.33;17.67;5.33
72031;PMS5003;49185;42.320;23.198;2023-01-19T06:30:13;14.00;10.50;1.00
72031;PMS5003;49185;42.320;23.198;2023-01-19T06:32:39;4.67;2.00;0.00
72031;PMS5003;49185;42.320;23.198;2023-01-19T06:35:05;5.00;4.00;0.00
72031;PMS5003;49185;42.320;23.198;2023-01-19T06:37:30;3.00;2.25;0.00
72031;PMS5003;49185;42.320;23.198;2023-01-19T06:39:56;3.00;1.00;0.00
72031;PMS5003;49185;42.320;23.198;2023-01-19T06:42:21;5.00;2.00;0.00
72031;PMS5003;49185;42.320;23.198;2023-01-19T06:44:46;7.67;3.33;0.00
72031;PMS5003;49185;42.320;23.198;2023-01-19T06:47:12;7.00;4.67;0.00
72031;PMS5003;49185;42.320;23.198;2023-01-19T06:49:39;5.75;3.00;0.00
72031;PMS5003;49185;42.320;23.198;2023-01-19T06:52:04;5.33;2.67;0.00
72031;PMS5003;49185;42.320;23.198;2023-01-19T06:54:30;2.00;1.00;0.00
72031;PMS5003;49185;42.320;23.198;2023-01-19T06:56:55;4.00;2.00;0.00
72031;PMS5003;49185;42.320;23.198;2023-01-19T06:59:21;5.00;1.67;0.00
72031;PMS5003;49185;42.320;23.198;2023-01-19T07:01:46;5.00;2.00;0.00
72031;PMS5003;49185;42.320;23.198;2023-01-19T07:04:11;5.67;3.00;0.00
72031;PMS5003;49185;42.320;23.198;2023-01-19T07:06:37;3.00;1.00;0.00
72031;PMS5003;49185;42.320;23.198;2023-01-19T07:09:02;3.00;3.00;0.00
72031;PMS5003;49185;42.320;23.198;2023-01-19T07:11:28;1.00;0.00;0.00
72031;PMS5003;49185;42.320;23.198;2023-01-19T07:13:55;4.25;2.75;0.00
72031;PMS5003;49185;42.320;23.198;2023-01-19T07:16:20;6.00;6.00;1.00
72031;PMS5003;49185;42.320;23.198;2023-01-19T07:18:46;7.00;5.67;0.00
72031;PMS5003;49185;42.320;23.198;2023-01-19T07:21:12;3.50;2.75;0.00
72031;PMS5003;49185;42.320;23.198;2023-01-19T07:23:38;4.33;4.00;0.00
72031;PMS5003;49185;42.320;23.198;2023-01-19T07:26:03;4.33;2.00;0.00
72031;PMS5003;49185;42.320;23.198;2023-01-19T07:28:29;2.00;0.33;0.00
72031;PMS5003;49185;42.320;23.198;2023-01-19T07:30:55;3.00;1.50;0.00
72031;PMS5003;49185;42.320;23.198;2023-01-19T07:33:21;1.00;0.25;0.00
72031;PMS5003;49185;42.320;23.198;2023-01-19T07:35:47;4.25;3.25;0.00
72031;PMS5003;49185;42.320;23.198;2023-01-19T07:38:14;2.00;2.00;0.00
72031;PMS5003;49185;42.320;23.198;2023-01-19T07:40:41;3.75;2.00;0.00
72031;PMS5003;49185;42.320;23.198;2023-01-19T07:43:06;3.67;3.00;0.00
72031;PMS5003;49185;42.320;23.198;2023-01-19T07:45:31;4.00;1.00;0.00
72031;PMS5003;49185;42.320;23.198;2023-01-19T07:47:57;2.00;1.00;0.00
72031;PMS5003;49185;42.320;23.198;2023-01-19T07:50:22;4.00;3.00;0.00
72031;PMS5003;49185;42.320;23.198;2023-01-19T07:52:48;4.00;4.00;0.00
72031;PMS5003;49185;42.320;23.198;2023-01-19T07:55:13;7.00;4.00;0.00
72031;PMS5003;49185;42.320;23.198;2023-01-19T07:57:39;8.00;6.00;0.00
72031;PMS5003;49185;42.320;23.198;2023-01-19T08:00:04;8.67;7.67;0.00
72031;PMS5003;49185;42.320;23.198;2023-01-19T08:02:30;10.00;7.00;0.50
72031;PMS5003;49185;42.320;23.198;2023-01-19T08:04:56;8.00;6.00;1.00
72031;PMS5003;49185;42.320;23.198;2023-01-19T08:07:21;9.00;8.67;1.67
72031;PMS5003;49185;42.320;23.198;2023-01-19T08:09:47;8.33;8.00;2.00
72031;PMS5003;49185;42.320;23.198;2023-01-19T08:12:12;9.33;8.67;1.00
72031;PMS5003;49185;42.320;23.198;2023-01-19T08:14:38;9.00;3.67;1.00
72031;PMS5003;49185;42.320;23.198;2023-01-19T08:17:03;4.00;3.00;0.00
72031;PMS5003;49185;42.320;23.198;2023-01-19T08:19:28;2.00;1.00;0.00
72031;PMS5003;49185;42.320;23.198;2023-01-19T08:21:54;5.00;2.00;0.00
72031;PMS5003;49185;42.320;23.198;2023-01-19T08:24:20;6.00;4.00;0.00
72031;PMS5003;49185;42.320;23.198;2023-01-19T08:26:47;5.50;2.75;0.00
72031;PMS5003;49185;42.320;23.198;2023-01-19T08:29:13;4.25;3.00;0.00
72031;PMS5003;49185;42.320;23.198;2023-01-19T08:31:39;5.67;3.00;0.00
72031;PMS5003;49185;42.320;23.198;2023-01-19T08:34:04;4.00;2.67;0.00
72031;PMS5003;49185;42.320;23.198;2023-01-19T08:36:30;4.00;3.00;0.00
72031;PMS5003;49185;42.320;23.198;2023-01-19T08:38:55;3.67;3.33;0.00
72031;PMS5003;49185;42.320;23.198;2023-01-19T08:41:21;2.00;1.00;0.00
72031;PMS5003;49185;42.320;23.198;2023-01-19T08:43:47;3.00;3.00;0.00
72031;PMS5003;49185;42.320;23.198;2023-01-19T08:46:13;5.00;3.50;0.50
72031;PMS5003;49185;42.320;23.198;2023-01-19T08:48:38;3.00;1.00;0.00
72031;PMS5003;49185;42.320;23.198;2023-01-19T08:51:04;4.00;0.00;0.00
72031;PMS5003;49185;42.320;23.198;2023-01-19T08:53:29;1.00;1.00;0.00
72031;PMS5003;49185;42.320;23.198;2023-01-19T08:55:55;2.00;1.33;0.00
72031;PMS5003;49185;42.320;23.198;2023-01-19T08:58:22;3.25;2.50;0.00
72031;PMS5003;49185;42.320;23.198;2023-01-19T09:00:48;11.25;7.00;1.00
72031;PMS5003;49185;42.320;23.198;2023-01-19T09:03:13;7.00;6.00;1.00
72031;PMS5003;49185;42.320;23.198;2023-01-19T09:05:39;6.67;6.00;2.00
72031;PMS5003;49185;42.320;23.198;2023-01-19T09:08:09;4.33;3.33;0.00
72031;PMS5003;49185;42.320;23.198;2023-01-19T09:10:36;5.00;4.75;0.00
72031;PMS5003;49185;42.320;23.198;2023-01-19T09:13:04;2.00;2.00;0.00
72031;PMS5003;49185;42.320;23.198;2023-01-19T09:15:30;6.00;2.00;0.00
72031;PMS5003;49185;42.320;23.198;2023-01-19T09:17:56;2.00;1.00;0.00
72031;PMS5003;49185;42.320;23.198;2023-01-19T09:20:21;1.00;1.00;0.00
72031;PMS5003;49185;42.320;23.198;2023-01-19T09:22:47;1.67;0.00;0.00
72031;PMS5003;49185;42.320;23.198;2023-01-19T09:25:12;0.00;0.00;0.00
72031;PMS5003;49185;42.320;23.198;2023-01-19T09:27:37;0.00;0.00;0.00
72031;PMS5003;49185;42.320;23.198;2023-01-19T09:30:03;1.00;0.00;0.00
72031;PMS5003;49185;42.320;23.198;2023-01-19T09:32:29;2.75;2.25;0.00
72031;PMS5003;49185;42.320;23.198;2023-01-19T09:34:55;3.00;2.00;0.00
72031;PMS5003;49185;42.320;23.198;2023-01-19T09:37:20;2.00;2.00;0.00
72031;PMS5003;49185;42.320;23.198;2023-01-19T09:39:46;2.33;1.33;0.00
72031;PMS5003;49185;42.320;23.198;2023-01-19T09:42:26;4.67;3.67;0.00
72031;PMS5003;49185;42.320;23.198;2023-01-19T09:45:03;2.00;2.00;0.00
72031;PMS5003;49185;42.320;23.198;2023-01-19T09:47:32;3.00;2.00;0.00
72031;PMS5003;49185;42.320;23.198;2023-01-19T09:50:02;10.50;9.75;1.50
72031;PMS5003;49185;42.320;23.198;2023-01-19T09:52:30;9.25;7.50;1.25
72031;PMS5003;49185;42.320;23.198;2023-01-19T09:55:00;7.50;4.25;0.00
72031;PMS5003;49185;42.320;23.198;2023-01-19T09:57:26;5.00;4.00;0.00
72031;PMS5003;49185;42.320;23.198;2023-01-19T09:59:52;2.50;2.00;0.00
72031;PMS5003;49185;42.320;23.198;2023-01-19T10:05:33;4.25;4.00;0.00
72031;PMS5003;49185;42.320;23.198;2023-01-19T10:08:27;0.50;0.50;0.00
72031;PMS5003;49185;42.320;23.198;2023-01-19T10:10:57;0.00;0.00;0.00
72031;PMS5003;49185;42.320;23.198;2023-01-19T10:13:38;1.33;0.00;0.00
72031;PMS5003;49185;42.320;23.198;2023-01-19T10:19:00;2.00;2.00;0.00
72031;PMS5003;49185;42.320;23.198;2023-01-19T10:21:42;1.00;1.00;0.00
72031;PMS5003;49185;42.320;23.198;2023-01-19T10:26:48;0.00;0.00;0.00
72031;PMS5003;49185;42.320;23.198;2023-01-19T10:29:29;1.00;1.00;0.00
72031;PMS5003;49185;42.320;23.198;2023-01-19T10:34:50;1.00;1.00;0.00
72031;PMS5003;49185;42.320;23.198;2023-01-19T10:39:56;0.00;0.00;0.00
72031;PMS5003;49185;42.320;23.198;2023-01-19T10:42:31;7.00;4.50;0.00
72031;PMS5003;49185;42.320;23.198;2023-01-19T10:44:56;3.00;1.33;0.00
72031;PMS5003;49185;42.320;23.198;2023-01-19T10:47:30;10.75;7.25;0.75
72031;PMS5003;49185;42.320;23.198;2023-01-19T10:50:00;16.75;13.50;5.25
72031;PMS5003;49185;42.320;23.198;2023-01-19T10:52:43;32.75;28.50;12.00
72031;PMS5003;49185;42.320;23.198;2023-01-19T10:57:49;22.00;17.00;2.75
72031;PMS5003;49185;42.320;23.198;2023-01-19T11:00:36;17.50;13.25;3.00
72031;PMS5003;49185;42.320;23.198;2023-01-19T11:03:24;18.25;11.00;2.00
72031;PMS5003;49185;42.320;23.198;2023-01-19T11:08:38;14.00;12.00;3.00
72031;PMS5003;49185;42.320;23.198;2023-01-19T11:11:04;17.00;17.00;6.00
72031;PMS5003;49185;42.320;23.198;2023-01-19T11:13:30;6.33;6.33;0.00
72031;PMS5003;49185;42.320;23.198;2023-01-19T11:15:57;7.75;6.50;1.00
72031;PMS5003;49185;42.320;23.198;2023-01-19T11:18:39;13.50;11.50;5.00
72031;PMS5003;49185;42.320;23.198;2023-01-19T11:21:13;7.00;5.00;1.50
72031;PMS5003;49185;42.320;23.198;2023-01-19T11:23:43;1.00;1.00;0.00
72031;PMS5003;49185;42.320;23.198;2023-01-19T11:26:13;0.00;0.00;0.00
72031;PMS5003;49185;42.320;23.198;2023-01-19T11:28:48;0.00;0.00;0.00
72031;PMS5003;49185;42.320;23.198;2023-01-19T11:31:17;3.50;2.00;0.00
72031;PMS5003;49185;42.320;23.198;2023-01-19T11:36:16;4.00;4.00;0.00
72031;PMS5003;49185;42.320;23.198;2023-01-19T11:38:50;3.00;2.00;0.00
72031;PMS5003;49185;42.320;23.198;2023-01-19T11:43:49;0.00;0.00;0.00
72031;PMS5003;49185;42.320;23.198;2023-01-19T11:46:17;1.50;0.00;0.00
72031;PMS5003;49185;42.320;23.198;2023-01-19T11:51:27;0.00;0.00;0.00
72031;PMS5003;49185;42.320;23.198;2023-01-19T11:54:12;0.00;0.00;0.00
72031;PMS5003;49185;42.320;23.198;2023-01-19T11:56:43;0.75;0.00;0.00
72031;PMS5003;49185;42.320;23.198;2023-01-19T11:59:12;0.00;0.00;0.00
72031;PMS5003;49185;42.320;23.198;2023-01-19T12:01:40;0.00;0.00;0.00
72031;PMS5003;49185;42.320;23.198;2023-01-19T12:04:12;8.50;5.50;0.25
72031;PMS5003;49185;42.320;23.198;2023-01-19T12:06:47;7.25;4.75;0.00
72031;PMS5003;49185;42.320;23.198;2023-01-19T12:09:27;14.00;10.50;2.50
72031;PMS5003;49185;42.320;23.198;2023-01-19T12:12:23;16.00;14.00;3.75
72031;PMS5003;49185;42.320;23.198;2023-01-19T12:14:55;2.75;0.75;0.00
72031;PMS5003;49185;42.320;23.198;2023-01-19T12:17:46;17.50;16.75;6.25
72031;PMS5003;49185;42.320;23.198;2023-01-19T12:25:46;17.00;15.00;8.00
72031;PMS5003;49185;42.320;23.198;2023-01-19T12:28:36;14.50;12.00;4.00
72031;PMS5003;49185;42.320;23.198;2023-01-19T12:31:04;20.50;18.50;8.00
72031;PMS5003;49185;42.320;23.198;2023-01-19T12:33:31;14.33;12.33;3.00
72031;PMS5003;49185;42.320;23.198;2023-01-19T12:38:48;0.25;0.00;0.00
72031;PMS5003;49185;42.320;23.198;2023-01-19T12:49:55;13.50;9.25;4.00
72031;PMS5003;49185;42.320;23.198;2023-01-19T12:52:32;3.75;1.25;0.00
72031;PMS5003;49185;42.320;23.198;2023-01-19T12:57:40;9.75;8.50;4.00
72031;PMS5003;49185;42.320;23.198;2023-01-19T13:02:54;9.00;8.50;2.75
72031;PMS5003;49185;42.320;23.198;2023-01-19T13:16:01;0.00;0.00;0.00
72031;PMS5003;49185;42.320;23.198;2023-01-19T13:18:47;0.00;0.00;0.00
72031;PMS5003;49185;42.320;23.198;2023-01-19T13:24:02;18.00;17.00;6.25
72031;PMS5003;49185;42.320;23.198;2023-01-19T13:26:32;9.00;7.00;2.00
72031;PMS5003;49185;42.320;23.198;2023-01-19T13:31:38;4.00;3.00;0.00
72031;PMS5003;49185;42.320;23.198;2023-01-19T13:34:11;0.00;0.00;0.00
72031;PMS5003;49185;42.320;23.198;2023-01-19T13:36:42;1.50;0.00;0.00
72031;PMS5003;49185;42.320;23.198;2023-01-19T13:39:33;3.50;1.00;0.00
72031;PMS5003;49185;42.320;23.198;2023-01-19T13:42:00;2.75;1.75;0.00
72031;PMS5003;49185;42.320;23.198;2023-01-19T13:44:30;2.25;2.25;0.00
72031;PMS5003;49185;42.320;23.198;2023-01-19T13:47:02;5.50;3.00;0.00
72031;PMS5003;49185;42.320;23.198;2023-01-19T13:49:29;0.75;0.75;0.00
72031;PMS5003;49185;42.320;23.198;2023-01-19T13:52:04;0.50;0.00;0.00
72031;PMS5003;49185;42.320;23.198;2023-01-19T13:55:01;0.00;0.00;0.00
72031;PMS5003;49185;42.320;23.198;2023-01-19T14:02:35;2.00;2.00;0.00
72031;PMS5003;49185;42.320;23.198;2023-01-19T14:08:32;2.25;1.00;0.00
72031;PMS5003;49185;42.320;23.198;2023-01-19T14:13:13;0.00;0.00;0.00
72031;PMS5003;49185;42.320;23.198;2023-01-19T14:15:50;0.00;0.00;0.00
72031;PMS5003;49185;42.320;23.198;2023-01-19T14:20:52;0.00;0.00;0.00
72031;PMS5003;49185;42.320;23.198;2023-01-19T14:23:40;0.00;0.00;0.00
72031;PMS5003;49185;42.320;23.198;2023-01-19T14:31:44;0.00;0.00;0.00
72031;PMS5003;49185;42.320;23.198;2023-01-19T14:37:01;0.00;0.00;0.00
72031;PMS5003;49185;42.320;23.198;2023-01-19T14:39:34;4.00;3.00;0.00
72031;PMS5003;49185;42.320;23.198;2023-01-19T14:42:00;0.00;0.00;0.00
72031;PMS5003;49185;42.320;23.198;2023-01-19T14:44:28;16.50;14.50;8.50
72031;PMS5003;49185;42.320;23.198;2023-01-19T14:46:57;7.00;6.50;1.00
72031;PMS5003;49185;42.320;23.198;2023-01-19T14:52:00;6.00;4.75;2.00
72031;PMS5003;49185;42.320;23.198;2023-01-19T14:54:36;0.00;0.00;0.00
72031;PMS5003;49185;42.320;23.198;2023-01-19T14:57:04;1.25;0.50;0.00
72031;PMS5003;49185;42.320;23.198;2023-01-19T14:59:35;0.00;0.00;0.00
72031;PMS5003;49185;42.320;23.198;2023-01-19T15:02:00;3.00;3.00;0.00
72031;PMS5003;49185;42.320;23.198;2023-01-19T15:04:26;6.00;5.25;0.00
72031;PMS5003;49185;42.320;23.198;2023-01-19T15:06:52;4.33;3.67;0.00
72031;PMS5003;49185;42.320;23.198;2023-01-19T15:09:19;3.00;3.00;0.00
72031;PMS5003;49185;42.320;23.198;2023-01-19T15:11:45;0.00;0.00;0.00
72031;PMS5003;49185;42.320;23.198;2023-01-19T15:14:13;0.00;0.00;0.00
72031;PMS5003;49185;42.320;23.198;2023-01-19T15:16:40;0.00;0.00;0.00
72031;PMS5003;49185;42.320;23.198;2023-01-19T15:19:13;0.00;0.00;0.00
72031;PMS5003;49185;42.320;23.198;2023-01-19T15:21:40;0.00;0.00;0.00
72031;PMS5003;49185;42.320;23.198;2023-01-19T15:24:05;0.00;0.00;0.00
72031;PMS5003;49185;42.320;23.198;2023-01-19T15:26:31;2.50;0.00;0.00
72031;PMS5003;49185;42.320;23.198;2023-01-19T15:28:57;4.33;3.00;0.00
72031;PMS5003;49185;42.320;23.198;2023-01-19T15:31:23;1.33;1.00;0.00
72031;PMS5003;49185;42.320;23.198;2023-01-19T15:33:50;0.00;0.00;0.00
72031;PMS5003;49185;42.320;23.198;2023-01-19T15:36:16;15.00;14.00;6.00
72031;PMS5003;49185;42.320;23.198;2023-01-19T15:38:43;22.00;20.25;9.75
72031;PMS5003;49185;42.320;23.198;2023-01-19T15:41:13;8.50;7.75;0.25
72031;PMS5003;49185;42.320;23.198;2023-01-19T15:43:40;0.00;0.00;0.00
72031;PMS5003;49185;42.320;23.198;2023-01-19T15:46:05;0.00;0.00;0.00
72031;PMS5003;49185;42.320;23.198;2023-01-19T15:48:31;9.00;8.25;3.25
72031;PMS5003;49185;42.320;23.198;2023-01-19T15:50:57;8.00;5.00;1.33
72031;PMS5003;49185;42.320;23.198;2023-01-19T15:53:22;0.00;0.00;0.00
72031;PMS5003;49185;42.320;23.198;2023-01-19T15:55:49;0.00;0.00;0.00
72031;PMS5003;49185;42.320;23.198;2023-01-19T15:58:16;1.00;1.00;0.00
72031;PMS5003;49185;42.320;23.198;2023-01-19T16:00:42;0.00;0.00;0.00
72031;PMS5003;49185;42.320;23.198;2023-01-19T16:03:08;0.00;0.00;0.00
72031;PMS5003;49185;42.320;23.198;2023-01-19T16:05:35;0.00;0.00;0.00
72031;PMS5003;49185;42.320;23.198;2023-01-19T16:08:00;0.50;0.50;0.00
72031;PMS5003;49185;42.320;23.198;2023-01-19T16:10:26;0.00;0.00;0.00
72031;PMS5003;49185;42.320;23.198;2023-01-19T16:12:51;1.00;1.00;0.00
72031;PMS5003;49185;42.320;23.198;2023-01-19T16:15:17;0.00;0.00;0.00
72031;PMS5003;49185;42.320;23.198;2023-01-19T16:17:43;4.33;4.33;0.00
72031;PMS5003;49185;42.320;23.198;2023-01-19T16:20:09;12.25;8.75;3.25
72031;PMS5003;49185;42.320;23.198;2023-01-19T16:22:35;8.25;3.00;1.00
72031;PMS5003;49185;42.320;23.198;2023-01-19T16:25:02;2.25;2.00;0.00
72031;PMS5003;49185;42.320;23.198;2023-01-19T16:27:28;1.50;1.50;0.00
72031;PMS5003;49185;42.320;23.198;2023-01-19T16:29:55;0.00;0.00;0.00
72031;PMS5003;49185;42.320;23.198;2023-01-19T16:32:20;0.00;0.00;0.00